Time;durP1;ratioP1;P1;durP2;ratioP2;P2;SDS_P1;SDS_P2;PMS_P1;PMS_P2;Temp;Humidity;BMP_temperature;BMP_pressure;BME280_temperature;BME280_humidity;BME280_pressure;Samples;Min_cycle;Max_cycle;Signal;HPM_P1;HPM_P2
2024/01/22 00:02:20;;;;;;;1.73;1.00;;;2.90;99.90;;;;;;5035035;28;20243;-46
2024/01/22 00:04:48;;;;;;;2.28;1.40;;;2.90;99.90;;;;;;5032774;28;20205;-45
2024/01/22 00:07:16;;;;;;;2.55;1.60;;;2.90;99.90;;;;;;5039291;28;20327;-45
2024/01/22 00:09:45;;;;;;;1.58;0.88;;;2.90;99.90;;;;;;5033367;28;20690;-46
2024/01/22 00:12:14;;;;;;;2.42;1.30;;;2.90;99.90;;;;;;5042412;28;20217;-46
2024/01/22 00:14:42;;;;;;;2.58;1.80;;;2.90;99.90;;;;;;5039611;28;20227;-46
2024/01/22 00:17:11;;;;;;;2.00;1.20;;;2.90;99.90;;;;;;5042438;28;20707;-45
2024/01/22 00:19:40;;;;;;;1.50;0.93;;;2.90;99.90;;;;;;5041721;28;20224;-45
2024/01/22 00:22:08;;;;;;;1.70;1.10;;;2.90;99.90;;;;;;5037205;28;20216;-45
2024/01/22 00:24:36;;;;;;;1.80;1.30;;;2.90;99.90;;;;;;5039863;28;20228;-44
2024/01/22 00:27:05;;;;;;;1.85;1.20;;;2.90;99.90;;;;;;5041208;28;20208;-45
2024/01/22 00:29:33;;;;;;;2.58;1.33;;;2.90;99.90;;;;;;5041581;28;20579;-45
2024/01/22 00:32:03;;;;;;;2.90;1.30;;;2.90;99.90;;;;;;5037184;28;20329;-45
2024/01/22 00:34:31;;;;;;;2.42;1.30;;;2.90;99.90;;;;;;5042381;28;20220;-46
2024/01/22 00:37:01;;;;;;;2.65;1.48;;;2.90;99.90;;;;;;5043047;28;20191;-45
2024/01/22 00:39:29;;;;;;;1.80;1.20;;;2.90;99.90;;;;;;5039629;28;20609;-45
2024/01/22 00:41:57;;;;;;;1.70;1.10;;;3.00;99.90;;;;;;5039932;28;20275;-45
2024/01/22 00:44:26;;;;;;;2.25;1.17;;;2.90;99.90;;;;;;5043402;28;20599;-46
2024/01/22 00:46:53;;;;;;;3.35;1.73;;;2.90;99.90;;;;;;5043211;28;20271;-45
2024/01/22 00:49:22;;;;;;;1.80;1.10;;;2.90;99.90;;;;;;5040195;28;20594;-45
2024/01/22 00:51:50;;;;;;;2.13;1.10;;;2.90;99.90;;;;;;5042760;28;20244;-45
2024/01/22 00:54:20;;;;;;;2.25;1.23;;;2.90;99.90;;;;;;5044187;28;20225;-45
2024/01/22 00:56:48;;;;;;;1.52;0.85;;;2.90;99.90;;;;;;5037838;28;20196;-45
2024/01/22 00:59:16;;;;;;;2.33;1.40;;;2.90;99.90;;;;;;5038697;28;20576;-45
2024/01/22 01:01:45;;;;;;;1.70;1.17;;;2.90;99.90;;;;;;5042223;28;20308;-45
2024/01/22 01:04:13;;;;;;;1.73;1.02;;;3.00;99.90;;;;;;5035276;28;20436;-45
2024/01/22 01:06:41;;;;;;;2.35;1.10;;;3.00;99.90;;;;;;5039917;28;20448;-45
2024/01/22 01:09:09;;;;;;;1.90;1.30;;;2.90;99.90;;;;;;5040215;28;20266;-45
2024/01/22 01:11:39;;;;;;;2.55;1.17;;;3.00;99.90;;;;;;5040618;28;20220;-45
2024/01/22 01:14:08;;;;;;;2.20;1.35;;;2.90;99.90;;;;;;5043002;28;20269;-45
2024/01/22 01:16:36;;;;;;;1.90;1.10;;;3.00;99.90;;;;;;5043503;28;20574;-45
2024/01/22 01:19:04;;;;;;;4.47;1.05;;;3.00;99.90;;;;;;5042302;28;20682;-45
2024/01/22 01:21:32;;;;;;;2.00;1.30;;;3.00;99.90;;;;;;5045005;28;20217;-46
2024/01/22 01:24:01;;;;;;;3.53;1.50;;;3.00;99.90;;;;;;5041999;28;20275;-46
2024/01/22 01:26:29;;;;;;;2.67;1.20;;;3.00;99.90;;;;;;5049041;28;20205;-45
2024/01/22 01:28:58;;;;;;;1.90;0.95;;;3.00;99.90;;;;;;5025764;28;20201;-45
2024/01/22 01:31:28;;;;;;;2.13;1.20;;;3.00;99.90;;;;;;5040554;28;20691;-46
2024/01/22 01:33:57;;;;;;;1.50;0.80;;;3.00;99.90;;;;;;5036722;28;20753;-46
2024/01/22 01:36:26;;;;;;;2.33;1.77;;;3.00;99.90;;;;;;5047853;28;20203;-46
2024/01/22 01:38:54;;;;;;;3.28;1.35;;;3.00;99.90;;;;;;5046552;28;20195;-45
2024/01/22 01:41:22;;;;;;;6.00;1.50;;;3.00;99.90;;;;;;5050671;28;20219;-46
2024/01/22 01:43:51;;;;;;;2.45;1.20;;;3.00;99.90;;;;;;5042023;28;20204;-46
2024/01/22 01:46:21;;;;;;;2.35;1.20;;;3.00;99.90;;;;;;5045289;28;20287;-45
2024/01/22 01:48:51;;;;;;;1.52;0.90;;;3.00;99.90;;;;;;5040787;28;20281;-45
2024/01/22 01:51:20;;;;;;;3.40;1.15;;;3.00;99.90;;;;;;5045142;28;20234;-45
2024/01/22 01:53:49;;;;;;;1.95;1.30;;;3.00;99.90;;;;;;5039150;28;20194;-46
2024/01/22 01:56:18;;;;;;;2.40;1.42;;;3.00;99.90;;;;;;5048185;28;20192;-45
2024/01/22 01:58:47;;;;;;;2.10;1.08;;;3.00;99.90;;;;;;5044083;28;20212;-46
2024/01/22 02:01:16;;;;;;;2.70;1.20;;;3.10;99.90;;;;;;5042933;28;20294;-45
2024/01/22 02:03:46;;;;;;;1.70;1.10;;;3.00;99.90;;;;;;5048343;28;20201;-45
2024/01/22 02:06:14;;;;;;;1.75;1.00;;;3.00;99.90;;;;;;5043381;28;20231;-45
2024/01/22 02:08:51;;;;;;;1.75;1.05;;;3.10;99.90;;;;;;5050098;28;20682;-46
2024/01/22 02:11:21;;;;;;;1.60;1.00;;;3.00;99.90;;;;;;5041845;28;20281;-45
2024/01/22 02:13:49;;;;;;;1.77;1.08;;;3.00;99.90;;;;;;5042651;28;20215;-46
2024/01/22 02:16:17;;;;;;;2.03;1.00;;;3.10;99.90;;;;;;5042001;28;20296;-45
2024/01/22 02:18:47;;;;;;;2.67;1.15;;;3.00;99.90;;;;;;5044739;28;20193;-45
2024/01/22 02:21:16;;;;;;;2.30;1.40;;;3.10;99.90;;;;;;5040198;28;20313;-45
2024/01/22 02:23:46;;;;;;;1.80;1.00;;;3.10;99.90;;;;;;5029542;28;20251;-46
2024/01/22 02:26:14;;;;;;;2.28;1.20;;;3.10;99.90;;;;;;5040891;28;20235;-46
2024/01/22 02:28:42;;;;;;;2.00;1.10;;;3.10;99.90;;;;;;5027730;28;20228;-45
2024/01/22 02:31:10;;;;;;;2.40;0.93;;;3.10;99.90;;;;;;5039485;28;20213;-46
2024/01/22 02:33:38;;;;;;;1.65;0.82;;;3.10;99.90;;;;;;5048865;28;20192;-45
2024/01/22 02:36:07;;;;;;;2.50;1.23;;;3.10;99.90;;;;;;5043766;28;20232;-45
2024/01/22 02:38:36;;;;;;;1.65;0.95;;;3.10;99.90;;;;;;5045681;28;20284;-45
2024/01/22 02:41:06;;;;;;;1.88;0.80;;;3.00;99.90;;;;;;5042202;28;20216;-45
2024/01/22 02:43:35;;;;;;;1.50;0.70;;;3.10;99.90;;;;;;5045392;28;20289;-45
2024/01/22 02:46:03;;;;;;;1.90;1.10;;;3.10;99.90;;;;;;5040137;28;20319;-45
2024/01/22 02:48:32;;;;;;;1.65;0.80;;;3.10;99.90;;;;;;5043502;28;20258;-45
2024/01/22 02:51:00;;;;;;;1.88;1.00;;;3.10;99.90;;;;;;5038127;28;20243;-46
2024/01/22 02:53:29;;;;;;;1.60;0.80;;;3.10;99.90;;;;;;5046622;28;20189;-46
2024/01/22 02:55:57;;;;;;;1.70;0.98;;;3.10;99.90;;;;;;5041910;28;20300;-45
2024/01/22 02:58:29;;;;;;;1.30;0.60;;;3.10;99.90;;;;;;5047045;28;20268;-45
2024/01/22 03:00:57;;;;;;;2.70;0.90;;;3.10;99.90;;;;;;5045874;28;20212;-45
2024/01/22 03:03:25;;;;;;;1.70;1.15;;;3.10;99.90;;;;;;5036213;28;20185;-45
2024/01/22 03:05:54;;;;;;;2.05;0.70;;;3.10;99.90;;;;;;5042345;28;20212;-46
2024/01/22 03:08:22;;;;;;;1.90;1.00;;;3.10;99.90;;;;;;5045770;28;20227;-46
2024/01/22 03:10:51;;;;;;;2.15;1.30;;;3.10;99.90;;;;;;5041412;28;20241;-46
2024/01/22 03:13:19;;;;;;;1.45;0.77;;;3.10;99.90;;;;;;5043354;28;20208;-46
2024/01/22 03:15:48;;;;;;;1.45;0.70;;;3.10;99.90;;;;;;5042937;28;20216;-45
2024/01/22 03:18:17;;;;;;;1.80;1.33;;;3.10;99.90;;;;;;5045672;28;20590;-45
2024/01/22 03:20:45;;;;;;;1.70;0.80;;;3.10;99.90;;;;;;5040655;28;20228;-46
2024/01/22 03:23:14;;;;;;;1.30;0.65;;;3.10;99.90;;;;;;5045332;28;20648;-46
2024/01/22 03:25:43;;;;;;;2.15;1.00;;;3.10;99.90;;;;;;5042302;28;20251;-46
2024/01/22 03:28:11;;;;;;;1.90;0.70;;;3.10;99.90;;;;;;5039799;28;20213;-46
2024/01/22 03:30:39;;;;;;;1.60;0.77;;;3.10;99.90;;;;;;5041623;28;20275;-46
2024/01/22 03:33:08;;;;;;;2.03;1.00;;;3.10;99.90;;;;;;5049083;28;20615;-46
2024/01/22 03:35:37;;;;;;;2.30;1.00;;;3.10;99.90;;;;;;5021585;28;20327;-45
2024/01/22 03:38:06;;;;;;;1.30;0.80;;;3.10;99.90;;;;;;5043314;28;20185;-45
2024/01/22 03:40:35;;;;;;;1.92;0.70;;;3.10;99.90;;;;;;5040683;28;20568;-45
2024/01/22 03:43:03;;;;;;;2.15;0.90;;;3.10;99.90;;;;;;5046554;28;20299;-45
2024/01/22 03:45:31;;;;;;;2.00;0.80;;;3.10;99.90;;;;;;5040779;28;20266;-46
2024/01/22 03:47:59;;;;;;;1.80;0.80;;;3.10;99.90;;;;;;5028130;28;20296;-45
2024/01/22 03:50:29;;;;;;;1.70;1.15;;;3.10;99.90;;;;;;5044295;28;20213;-46
2024/01/22 03:52:57;;;;;;;1.67;1.00;;;3.10;99.90;;;;;;5053194;28;20220;-46
2024/01/22 03:55:25;;;;;;;2.40;1.00;;;3.10;99.90;;;;;;5041618;28;20300;-46
2024/01/22 03:57:53;;;;;;;2.00;0.82;;;3.10;99.90;;;;;;5051236;28;20234;-46
2024/01/22 04:00:21;;;;;;;1.73;0.80;;;3.10;99.90;;;;;;5042143;28;20222;-46
2024/01/22 04:02:51;;;;;;;1.70;0.80;;;3.10;99.90;;;;;;5039692;28;20266;-46
2024/01/22 04:05:19;;;;;;;1.70;0.98;;;3.10;99.90;;;;;;5042215;28;20722;-46
2024/01/22 04:07:49;;;;;;;1.30;0.70;;;3.20;99.90;;;;;;5042709;28;20200;-46
2024/01/22 04:10:17;;;;;;;1.30;0.70;;;3.20;99.90;;;;;;5043545;28;20216;-46
2024/01/22 04:12:45;;;;;;;1.42;0.75;;;3.20;99.90;;;;;;5042173;28;20227;-46
2024/01/22 04:15:13;;;;;;;1.75;0.85;;;3.20;99.90;;;;;;5041119;28;20582;-45
2024/01/22 04:17:42;;;;;;;1.40;0.70;;;3.20;99.90;;;;;;5038755;28;20189;-46
2024/01/22 04:20:13;;;;;;;2.05;0.70;;;3.20;99.90;;;;;;5042993;28;20213;-46
2024/01/22 04:22:42;;;;;;;2.08;0.65;;;3.20;99.90;;;;;;5027385;28;20224;-46
2024/01/22 04:25:11;;;;;;;1.52;0.80;;;3.20;99.90;;;;;;5043519;28;20220;-46
2024/01/22 04:27:39;;;;;;;1.58;0.80;;;3.20;99.90;;;;;;5043448;28;20203;-46
2024/01/22 04:30:09;;;;;;;1.77;0.85;;;3.20;99.90;;;;;;5045609;28;20366;-46
2024/01/22 04:32:37;;;;;;;1.60;0.70;;;3.20;99.90;;;;;;5047138;28;20590;-45
2024/01/22 04:35:07;;;;;;;1.50;0.90;;;3.20;99.90;;;;;;5040168;28;20239;-45
2024/01/22 04:37:36;;;;;;;2.58;0.90;;;3.20;99.90;;;;;;5045201;28;20192;-45
2024/01/22 04:40:13;;;;;;;1.30;0.60;;;3.20;99.90;;;;;;5043939;28;20578;-46
2024/01/22 04:42:42;;;;;;;1.75;1.15;;;3.20;99.90;;;;;;5041492;28;20227;-45
2024/01/22 04:45:10;;;;;;;1.40;0.80;;;3.20;99.90;;;;;;5046354;28;20229;-46
2024/01/22 04:47:39;;;;;;;1.75;0.80;;;3.20;99.90;;;;;;5035032;28;20203;-45
2024/01/22 04:50:08;;;;;;;1.60;0.70;;;3.20;99.90;;;;;;5044277;28;20755;-45
2024/01/22 04:52:36;;;;;;;1.55;0.60;;;3.20;99.90;;;;;;5047140;28;20605;-45
2024/01/22 04:55:05;;;;;;;1.73;0.70;;;3.20;99.90;;;;;;5043065;28;20247;-45
2024/01/22 04:57:48;;;;;;;1.50;0.70;;;3.20;99.90;;;;;;5045540;28;20276;-46
2024/01/22 05:00:17;;;;;;;1.63;0.70;;;3.20;99.90;;;;;;5048889;28;20228;-45
2024/01/22 05:02:46;;;;;;;1.50;0.70;;;3.20;99.90;;;;;;5041454;28;20224;-45
2024/01/22 05:05:15;;;;;;;1.67;0.85;;;3.20;99.90;;;;;;5046734;28;20217;-44
2024/01/22 05:07:44;;;;;;;1.67;0.68;;;3.20;99.90;;;;;;5048676;28;20197;-46
2024/01/22 05:10:13;;;;;;;1.73;0.70;;;3.20;99.90;;;;;;5044211;28;20311;-45
2024/01/22 05:12:41;;;;;;;1.40;0.70;;;3.20;99.90;;;;;;5041504;28;20241;-45
2024/01/22 05:15:12;;;;;;;2.00;1.65;;;3.20;99.90;;;;;;5043198;28;20295;-46
2024/01/22 05:17:41;;;;;;;1.58;0.60;;;3.20;99.90;;;;;;5042144;28;20207;-46
2024/01/22 05:20:11;;;;;;;1.95;0.70;;;3.20;99.90;;;;;;5046061;28;20240;-45
2024/01/22 05:22:39;;;;;;;1.60;0.60;;;3.20;99.90;;;;;;5031076;28;20270;-45
2024/01/22 05:25:10;;;;;;;1.42;0.70;;;3.20;99.90;;;;;;5040035;28;20312;-45
2024/01/22 05:27:38;;;;;;;1.50;0.93;;;3.20;99.90;;;;;;5041945;28;20671;-45
2024/01/22 05:30:07;;;;;;;1.40;0.65;;;3.20;99.90;;;;;;5044273;28;20957;-44
2024/01/22 05:32:38;;;;;;;1.75;0.85;;;3.20;99.90;;;;;;5040295;28;20220;-45
2024/01/22 05:35:07;;;;;;;1.50;0.80;;;3.20;99.90;;;;;;5010379;28;20216;-45
2024/01/22 05:37:35;;;;;;;1.42;0.60;;;3.20;99.90;;;;;;5043372;28;20185;-45
2024/01/22 05:40:05;;;;;;;1.20;0.60;;;3.20;99.90;;;;;;5035739;28;20220;-46
2024/01/22 05:42:34;;;;;;;1.50;0.70;;;3.20;99.90;;;;;;5045140;28;20220;-46
2024/01/22 05:45:03;;;;;;;1.58;0.85;;;3.20;99.90;;;;;;5043749;28;20227;-45
2024/01/22 05:47:32;;;;;;;1.50;0.70;;;3.30;99.90;;;;;;5042119;28;20539;-45
2024/01/22 05:50:02;;;;;;;1.42;0.65;;;3.30;99.90;;;;;;5025565;28;20231;-46
2024/01/22 05:52:30;;;;;;;1.80;0.70;;;3.30;99.90;;;;;;5047060;28;20690;-46
2024/01/22 05:54:58;;;;;;;2.55;0.50;;;3.30;99.90;;;;;;5043741;28;20213;-45
2024/01/22 05:57:27;;;;;;;1.85;0.60;;;3.30;99.90;;;;;;5044028;28;20204;-45
2024/01/22 05:59:55;;;;;;;1.95;0.70;;;3.30;99.90;;;;;;5038303;28;20313;-45
2024/01/22 06:02:23;;;;;;;1.40;0.60;;;3.30;99.90;;;;;;5047358;28;20246;-45
2024/01/22 06:04:52;;;;;;;1.20;0.50;;;3.30;99.90;;;;;;5046666;28;20226;-46
2024/01/22 06:07:21;;;;;;;1.25;0.57;;;3.30;99.90;;;;;;5039096;28;20217;-45
2024/01/22 06:09:50;;;;;;;1.73;0.63;;;3.30;99.90;;;;;;5039162;28;20725;-45
2024/01/22 06:12:29;;;;;;;1.80;0.75;;;3.30;99.90;;;;;;5044617;28;20208;-45
2024/01/22 06:14:57;;;;;;;1.20;0.40;;;3.30;99.90;;;;;;5040438;28;20244;-46
2024/01/22 06:17:30;;;;;;;1.50;0.70;;;3.30;99.90;;;;;;5030115;28;20246;-46
2024/01/22 06:20:00;;;;;;;1.27;0.50;;;3.30;99.90;;;;;;5046336;28;20260;-45
2024/01/22 06:22:30;;;;;;;1.67;0.52;;;3.30;99.90;;;;;;5039592;28;20224;-46
2024/01/22 06:24:58;;;;;;;1.17;0.43;;;3.30;99.90;;;;;;5039845;28;20753;-45
2024/01/22 06:27:26;;;;;;;1.33;0.40;;;3.30;99.90;;;;;;5042462;28;20193;-46
2024/01/22 06:29:56;;;;;;;1.30;0.45;;;3.30;99.90;;;;;;5043241;28;20216;-46
2024/01/22 06:32:26;;;;;;;1.55;0.55;;;3.40;99.90;;;;;;5046957;28;20295;-46
2024/01/22 06:34:57;;;;;;;1.20;0.50;;;3.40;99.90;;;;;;5048869;28;20397;-46
2024/01/22 06:37:26;;;;;;;1.50;0.85;;;3.40;99.90;;;;;;5046935;28;20566;-46
2024/01/22 06:39:58;;;;;;;1.40;0.70;;;3.40;99.90;;;;;;5041098;28;20325;-46
2024/01/22 06:42:27;;;;;;;1.40;0.55;;;3.40;99.90;;;;;;5046210;28;20223;-45
2024/01/22 06:45:06;;;;;;;1.30;0.68;;;3.40;99.90;;;;;;5040259;28;20200;-45
2024/01/22 06:47:35;;;;;;;1.50;0.50;;;3.40;99.90;;;;;;5043855;28;20250;-45
2024/01/22 06:50:04;;;;;;;1.48;0.65;;;3.40;99.90;;;;;;5024996;28;20221;-45
2024/01/22 06:52:32;;;;;;;1.20;0.50;;;3.40;99.90;;;;;;5046508;28;20274;-45
2024/01/22 06:55:02;;;;;;;1.35;0.40;;;3.40;99.90;;;;;;5044663;28;20295;-45
2024/01/22 06:57:31;;;;;;;1.25;0.50;;;3.40;99.90;;;;;;5047028;28;20279;-45
2024/01/22 07:00:02;;;;;;;1.20;0.68;;;3.40;99.90;;;;;;5039638;28;20212;-45
2024/01/22 07:02:30;;;;;;;1.58;0.47;;;3.40;99.90;;;;;;5046931;28;20684;-46
2024/01/22 07:04:58;;;;;;;1.85;0.40;;;3.40;99.90;;;;;;5043026;28;20213;-45
2024/01/22 07:07:27;;;;;;;2.60;0.80;;;3.40;99.90;;;;;;5046853;28;20204;-45
2024/01/22 07:09:56;;;;;;;1.20;0.50;;;3.40;99.90;;;;;;5047936;28;20212;-45
2024/01/22 07:12:26;;;;;;;1.98;0.80;;;3.40;99.90;;;;;;5022647;28;20220;-45
2024/01/22 07:14:58;;;;;;;1.30;0.55;;;3.40;99.90;;;;;;5045361;28;20213;-46
2024/01/22 07:17:26;;;;;;;1.65;0.60;;;3.40;99.90;;;;;;5041704;28;20283;-46
2024/01/22 07:19:54;;;;;;;1.20;0.60;;;3.40;99.90;;;;;;5039952;28;20201;-45
2024/01/22 07:22:23;;;;;;;1.20;0.52;;;3.40;99.90;;;;;;5041763;28;20216;-46
2024/01/22 07:24:51;;;;;;;2.10;0.60;;;3.40;99.90;;;;;;5040084;28;20559;-46
2024/01/22 07:27:20;;;;;;;2.08;0.60;;;3.40;99.90;;;;;;5041794;28;20205;-46
2024/01/22 07:29:49;;;;;;;1.83;0.57;;;3.40;99.90;;;;;;5040983;28;20224;-45
2024/01/22 07:32:17;;;;;;;1.10;0.40;;;3.40;99.90;;;;;;5044390;28;20217;-45
2024/01/22 07:34:46;;;;;;;1.10;0.50;;;3.40;99.90;;;;;;5039353;28;20215;-46
2024/01/22 07:37:14;;;;;;;1.17;0.43;;;3.40;99.90;;;;;;5042156;28;20682;-45
2024/01/22 07:39:42;;;;;;;1.30;0.60;;;3.40;99.90;;;;;;5042684;28;20220;-46
2024/01/22 07:42:10;;;;;;;1.70;0.70;;;3.40;99.90;;;;;;5044738;28;20224;-45
2024/01/22 07:44:38;;;;;;;1.20;0.43;;;3.40;99.90;;;;;;5041715;28;20622;-45
2024/01/22 07:47:09;;;;;;;1.10;0.45;;;3.40;99.90;;;;;;5042074;28;20782;-45
2024/01/22 07:49:37;;;;;;;1.67;0.60;;;3.40;99.90;;;;;;5042198;28;20212;-46
2024/01/22 07:52:06;;;;;;;1.70;0.38;;;3.40;99.90;;;;;;5043103;28;20690;-46
2024/01/22 07:54:34;;;;;;;1.50;0.60;;;3.40;99.90;;;;;;5039743;28;20470;-46
2024/01/22 07:57:02;;;;;;;1.27;0.50;;;3.60;99.90;;;;;;5041740;28;20451;-45
2024/01/22 07:59:31;;;;;;;1.20;0.45;;;3.70;99.90;;;;;;5042359;28;20243;-46
2024/01/22 08:01:59;;;;;;;1.60;0.50;;;3.60;99.90;;;;;;5044603;28;20205;-45
2024/01/22 08:04:29;;;;;;;1.42;0.50;;;3.60;99.90;;;;;;5042403;28;20586;-46
2024/01/22 08:07:00;;;;;;;1.30;0.50;;;3.60;99.90;;;;;;5045253;28;20226;-45
2024/01/22 08:09:28;;;;;;;1.45;0.70;;;3.60;99.90;;;;;;5043829;28;20227;-46
2024/01/22 08:11:57;;;;;;;2.03;0.43;;;3.60;99.90;;;;;;5036218;28;21050;-45
2024/01/22 08:14:25;;;;;;;1.20;0.50;;;3.60;99.90;;;;;;5023088;28;20294;-46
2024/01/22 08:16:53;;;;;;;1.52;0.57;;;3.60;99.90;;;;;;5044425;28;20197;-46
2024/01/22 08:19:21;;;;;;;2.05;0.40;;;3.60;99.90;;;;;;5043900;28;20248;-46
2024/01/22 08:21:52;;;;;;;1.38;0.63;;;3.60;99.90;;;;;;5044213;28;20197;-46
2024/01/22 08:24:20;;;;;;;1.40;0.50;;;3.60;99.90;;;;;;5050593;28;20224;-46
2024/01/22 08:26:49;;;;;;;1.20;0.50;;;3.50;99.90;;;;;;5050488;28;20204;-46
2024/01/22 08:29:17;;;;;;;1.27;0.52;;;3.60;99.90;;;;;;5049674;28;20236;-46
2024/01/22 08:31:47;;;;;;;1.88;0.50;;;3.60;99.90;;;;;;5048595;28;20228;-46
2024/01/22 08:34:15;;;;;;;1.40;0.52;;;3.50;99.90;;;;;;5051636;28;20197;-46
2024/01/22 08:36:43;;;;;;;1.50;0.60;;;3.50;99.90;;;;;;5047641;28;20262;-46
2024/01/22 08:39:13;;;;;;;1.55;0.50;;;3.50;99.90;;;;;;5049607;28;20188;-46
2024/01/22 08:41:42;;;;;;;1.75;0.55;;;3.50;99.90;;;;;;5047805;28;20240;-46
2024/01/22 08:44:10;;;;;;;1.42;0.55;;;3.50;99.90;;;;;;5049771;28;20212;-46
2024/01/22 08:46:38;;;;;;;1.80;0.65;;;3.50;99.90;;;;;;5047077;28;20207;-45
2024/01/22 08:49:07;;;;;;;1.30;0.50;;;3.60;99.90;;;;;;5050885;28;20463;-46
2024/01/22 08:51:35;;;;;;;1.20;0.40;;;3.60;99.90;;;;;;5052420;28;20304;-46
2024/01/22 08:54:03;;;;;;;1.58;0.60;;;3.60;99.90;;;;;;5048083;28;20184;-46
2024/01/22 08:56:33;;;;;;;1.52;0.50;;;3.60;99.90;;;;;;5055539;28;20657;-45
2024/01/22 08:59:02;;;;;;;1.40;0.55;;;3.60;99.90;;;;;;5047822;28;20748;-46
2024/01/22 09:01:31;;;;;;;2.78;0.90;;;3.60;99.90;;;;;;5051374;28;20216;-46
2024/01/22 09:03:59;;;;;;;1.20;0.40;;;3.60;99.90;;;;;;5048767;28;20195;-45
2024/01/22 09:06:28;;;;;;;2.67;0.68;;;3.60;99.90;;;;;;5048028;28;20561;-46
2024/01/22 09:08:56;;;;;;;2.38;0.70;;;3.60;99.90;;;;;;5050170;28;20201;-46
2024/01/22 09:11:25;;;;;;;3.30;0.90;;;3.60;99.90;;;;;;5044653;28;20216;-46
2024/01/22 09:13:54;;;;;;;1.50;0.50;;;3.60;99.90;;;;;;5044152;28;20201;-46
2024/01/22 09:16:22;;;;;;;3.05;0.65;;;3.60;99.90;;;;;;5048997;28;20693;-46
2024/01/22 09:18:50;;;;;;;1.80;0.85;;;3.60;99.90;;;;;;5052601;28;20193;-47
2024/01/22 09:21:19;;;;;;;5.10;0.65;;;3.60;99.90;;;;;;5052514;28;20570;-47
2024/01/22 09:23:47;;;;;;;1.88;0.93;;;3.70;99.90;;;;;;5045780;28;20193;-46
2024/01/22 09:26:15;;;;;;;1.23;0.40;;;3.60;99.90;;;;;;5049607;28;20602;-46
2024/01/22 09:28:43;;;;;;;1.55;0.60;;;3.70;99.90;;;;;;5057681;28;20193;-47
2024/01/22 09:31:13;;;;;;;2.13;0.55;;;3.70;99.90;;;;;;5040387;28;20224;-46
2024/01/22 09:33:41;;;;;;;1.75;0.70;;;3.70;99.90;;;;;;5032164;28;20220;-46
2024/01/22 09:36:09;;;;;;;2.20;0.50;;;3.70;99.90;;;;;;5050511;28;20223;-45
2024/01/22 09:38:39;;;;;;;2.65;0.50;;;3.70;99.90;;;;;;5046049;28;20201;-46
2024/01/22 09:41:08;;;;;;;1.42;0.70;;;3.70;99.90;;;;;;5046567;28;20228;-46
2024/01/22 09:43:38;;;;;;;1.48;0.60;;;3.70;99.90;;;;;;5046683;28;20601;-47
2024/01/22 09:46:06;;;;;;;1.75;0.80;;;3.70;99.90;;;;;;5049494;28;20303;-45
2024/01/22 09:48:36;;;;;;;4.00;1.50;;;3.90;99.90;;;;;;5049146;28;20569;-46
2024/01/22 09:51:06;;;;;;;2.53;0.73;;;4.30;99.90;;;;;;5048034;28;20244;-45
2024/01/22 09:53:35;;;;;;;1.70;0.82;;;4.30;99.90;;;;;;5048420;28;20224;-46
2024/01/22 09:56:05;;;;;;;3.95;0.80;;;4.20;99.90;;;;;;5044937;28;20274;-45
2024/01/22 09:58:40;;;;;;;1.95;0.80;;;4.20;99.90;;;;;;5049073;28;20668;-45
2024/01/22 10:01:11;;;;;;;2.50;0.70;;;4.10;99.90;;;;;;5042075;28;20682;-45
2024/01/22 10:03:41;;;;;;;2.67;2.10;;;4.10;99.90;;;;;;5049189;28;20207;-45
2024/01/22 10:06:10;;;;;;;3.75;1.10;;;4.00;99.90;;;;;;5043663;28;20690;-45
2024/01/22 10:08:38;;;;;;;2.38;1.00;;;4.00;99.90;;;;;;5026481;28;20193;-46
2024/01/22 10:11:06;;;;;;;1.90;0.77;;;4.00;99.90;;;;;;5045593;28;20303;-46
2024/01/22 10:13:49;;;;;;;3.38;0.68;;;3.90;99.90;;;;;;5043522;28;20204;-45
2024/01/22 10:16:18;;;;;;;1.85;0.60;;;3.90;99.90;;;;;;5043358;28;20679;-46
2024/01/22 10:18:58;;;;;;;2.58;0.60;;;3.90;99.90;;;;;;5038505;28;20197;-46
2024/01/22 10:21:27;;;;;;;2.22;0.70;;;3.90;99.90;;;;;;5039153;28;20263;-46
2024/01/22 10:23:57;;;;;;;3.08;0.80;;;3.90;99.90;;;;;;5046668;28;20204;-46
2024/01/22 10:26:25;;;;;;;2.80;0.90;;;3.90;99.90;;;;;;5042492;28;20217;-45
2024/01/22 10:28:53;;;;;;;1.40;0.52;;;3.90;99.90;;;;;;5031216;28;20201;-45
2024/01/22 10:31:21;;;;;;;1.20;0.47;;;3.90;99.90;;;;;;5048408;28;20244;-45
2024/01/22 10:33:50;;;;;;;1.40;0.63;;;3.90;99.90;;;;;;5046280;28;20589;-46
2024/01/22 10:36:21;;;;;;;1.90;0.80;;;3.90;99.90;;;;;;5046288;28;20240;-46
2024/01/22 10:39:04;;;;;;;1.65;0.70;;;3.90;99.90;;;;;;5042309;28;20254;-46
2024/01/22 10:41:34;;;;;;;2.67;0.70;;;3.90;99.90;;;;;;5043170;28;20236;-45
2024/01/22 10:44:03;;;;;;;1.85;1.00;;;3.90;99.90;;;;;;5042131;28;20280;-45
2024/01/22 10:46:32;;;;;;;2.42;0.70;;;3.90;99.90;;;;;;5049202;28;20749;-45
2024/01/22 10:49:01;;;;;;;2.45;0.70;;;3.90;99.90;;;;;;5041275;28;20203;-46
2024/01/22 10:51:33;;;;;;;1.65;0.57;;;3.90;99.90;;;;;;5044796;28;20286;-46
2024/01/22 10:54:03;;;;;;;2.42;0.80;;;3.90;99.90;;;;;;5042039;28;20200;-45
2024/01/22 10:56:38;;;;;;;3.38;0.80;;;3.90;99.90;;;;;;5040207;28;20283;-45
2024/01/22 10:59:15;;;;;;;1.45;0.70;;;3.90;99.90;;;;;;5045555;28;20200;-46
2024/01/22 11:01:44;;;;;;;1.70;0.60;;;3.90;99.90;;;;;;5042664;28;20209;-45
2024/01/22 11:04:13;;;;;;;1.67;0.73;;;3.90;99.90;;;;;;5041758;28;20594;-46
2024/01/22 11:06:45;;;;;;;1.40;0.55;;;3.90;99.90;;;;;;5039338;28;20196;-45
2024/01/22 11:09:15;;;;;;;1.85;0.60;;;3.90;99.90;;;;;;5042539;28;20192;-45
2024/01/22 11:11:47;;;;;;;1.60;0.68;;;3.90;99.90;;;;;;5042318;28;20209;-45
2024/01/22 11:14:15;;;;;;;1.40;0.75;;;3.90;99.90;;;;;;5046728;28;20189;-45
2024/01/22 11:16:43;;;;;;;2.42;0.47;;;3.90;99.90;;;;;;5047100;28;20288;-45
2024/01/22 11:19:20;;;;;;;1.30;0.50;;;3.90;99.90;;;;;;5034823;28;20288;-45
2024/01/22 11:21:52;;;;;;;2.13;0.90;;;3.90;99.90;;;;;;5045089;28;20593;-45
2024/01/22 11:24:23;;;;;;;3.17;0.65;;;3.90;99.90;;;;;;5045173;28;20287;-45
2024/01/22 11:27:07;;;;;;;4.05;0.68;;;3.90;99.90;;;;;;5040731;28;20189;-46
2024/01/22 11:29:36;;;;;;;1.58;0.68;;;3.90;99.90;;;;;;5039872;28;20228;-45
2024/01/22 11:32:27;;;;;;;1.50;0.77;;;3.90;99.90;;;;;;5035674;28;20271;-46
2024/01/22 11:34:58;;;;;;;2.30;0.65;;;3.90;99.90;;;;;;5023403;28;20224;-45
2024/01/22 11:37:42;;;;;;;2.00;0.68;;;3.90;99.90;;;;;;5044656;28;20543;-46
2024/01/22 11:40:12;;;;;;;2.88;0.93;;;3.90;99.90;;;;;;5040431;28;20296;-46
2024/01/22 11:42:40;;;;;;;1.20;0.40;;;3.90;99.90;;;;;;5046767;28;20213;-46
2024/01/22 11:45:14;;;;;;;1.90;0.60;;;3.90;99.90;;;;;;5045292;28;20598;-46
2024/01/22 11:47:43;;;;;;;1.40;0.40;;;3.90;99.90;;;;;;5043313;28;20196;-46
2024/01/22 11:50:15;;;;;;;2.13;0.70;;;3.90;99.90;;;;;;5044789;28;20267;-45
2024/01/22 11:52:44;;;;;;;1.63;0.77;;;3.90;99.90;;;;;;5045669;28;20270;-46
2024/01/22 11:55:13;;;;;;;2.58;0.90;;;4.00;99.90;;;;;;5039592;28;20271;-46
2024/01/22 11:57:41;;;;;;;3.58;0.60;;;4.00;99.90;;;;;;5040531;28;20190;-46
2024/01/22 12:00:19;;;;;;;1.92;0.80;;;3.90;99.90;;;;;;5047645;28;20209;-45
2024/01/22 12:02:50;;;;;;;2.63;0.90;;;4.00;99.90;;;;;;5044890;28;20208;-46
2024/01/22 12:05:18;;;;;;;2.65;0.77;;;4.00;99.90;;;;;;5045272;28;20225;-46
2024/01/22 12:07:52;;;;;;;1.13;0.40;;;4.00;99.90;;;;;;5042339;28;20196;-46
2024/01/22 12:10:22;;;;;;;1.42;0.45;;;4.00;99.90;;;;;;5045681;28;20213;-46
2024/01/22 12:12:52;;;;;;;1.35;0.57;;;4.00;99.90;;;;;;5043422;28;20690;-46
2024/01/22 12:15:21;;;;;;;1.48;0.80;;;4.00;99.90;;;;;;5046267;28;20235;-46
2024/01/22 12:17:49;;;;;;;3.10;0.70;;;4.00;99.90;;;;;;5042603;28;20287;-46
2024/01/22 12:20:19;;;;;;;1.73;1.10;;;4.00;99.90;;;;;;5039714;28;20213;-46
2024/01/22 12:22:58;;;;;;;1.73;0.50;;;4.00;99.90;;;;;;5041182;28;20231;-46
2024/01/22 12:25:35;;;;;;;3.75;0.68;;;4.00;99.90;;;;;;5040326;28;20216;-45
2024/01/22 12:28:11;;;;;;;2.95;0.60;;;4.00;99.90;;;;;;5049047;28;20219;-45
2024/01/22 12:30:43;;;;;;;1.65;0.73;;;4.00;99.90;;;;;;5044814;28;20278;-46
2024/01/22 12:33:24;;;;;;;1.65;0.75;;;4.00;99.90;;;;;;5039595;28;20210;-45
2024/01/22 12:36:08;;;;;;;1.60;1.10;;;4.00;99.90;;;;;;5037635;28;20258;-45
2024/01/22 12:38:52;;;;;;;2.30;0.50;;;4.00;99.90;;;;;;5039383;28;20566;-46
2024/01/22 12:41:21;;;;;;;1.30;0.40;;;4.10;99.90;;;;;;5041958;28;20725;-46
2024/01/22 12:43:50;;;;;;;1.20;0.47;;;4.00;99.90;;;;;;5045869;28;20566;-46
2024/01/22 12:46:19;;;;;;;1.23;0.40;;;4.10;99.90;;;;;;5041703;28;20228;-46
2024/01/22 12:48:49;;;;;;;1.60;0.70;;;4.10;99.90;;;;;;5042602;28;20236;-45
2024/01/22 12:51:18;;;;;;;2.08;1.10;;;4.10;99.90;;;;;;5041991;28;20240;-45
2024/01/22 12:53:48;;;;;;;2.05;0.80;;;4.10;99.90;;;;;;5046985;28;20706;-46
2024/01/22 12:56:17;;;;;;;2.22;1.00;;;4.10;99.90;;;;;;5046522;28;20296;-45
2024/01/22 12:58:45;;;;;;;1.92;0.90;;;4.10;99.90;;;;;;5042469;28;20215;-46
2024/01/22 13:01:14;;;;;;;1.67;0.60;;;4.10;99.90;;;;;;5044832;28;20260;-46
2024/01/22 13:03:42;;;;;;;2.50;0.70;;;4.10;99.90;;;;;;5043589;28;20216;-47
2024/01/22 13:06:11;;;;;;;2.45;0.60;;;4.10;99.90;;;;;;5044158;28;20292;-47
2024/01/22 13:08:39;;;;;;;2.17;0.73;;;4.10;99.90;;;;;;5049142;28;20420;-46
2024/01/22 13:11:09;;;;;;;1.90;0.60;;;4.10;99.90;;;;;;5049220;28;20764;-46